sensor_id;sensor_type;location;lat;lon;timestamp;P1;durP1;ratioP1;P2;durP2;ratioP2
16667;SDS011;8447;52.630;4.734;2022-08-21T00:01:12;7.57;;;1.87;;
16667;SDS011;8447;52.630;4.734;2022-08-21T00:03:40;5.03;;;1.33;;
16667;SDS011;8447;52.630;4.734;2022-08-21T00:06:06;3.50;;;1.40;;
16667;SDS011;8447;52.630;4.734;2022-08-21T00:08:33;1.90;;;1.10;;
16667;SDS011;8447;52.630;4.734;2022-08-21T00:11:01;8.50;;;2.50;;
16667;SDS011;8447;52.630;4.734;2022-08-21T00:13:27;3.57;;;1.40;;
16667;SDS011;8447;52.630;4.734;2022-08-21T00:15:53;3.37;;;1.33;;
16667;SDS011;8447;52.630;4.734;2022-08-21T00:18:20;4.90;;;1.60;;
16667;SDS011;8447;52.630;4.734;2022-08-21T00:20:46;5.93;;;1.40;;
16667;SDS011;8447;52.630;4.734;2022-08-21T00:23:14;4.77;;;1.60;;
16667;SDS011;8447;52.630;4.734;2022-08-21T00:25:40;3.27;;;1.27;;
16667;SDS011;8447;52.630;4.734;2022-08-21T00:28:08;2.60;;;1.07;;
16667;SDS011;8447;52.630;4.734;2022-08-21T00:30:35;4.30;;;1.60;;
16667;SDS011;8447;52.630;4.734;2022-08-21T00:33:02;4.63;;;1.77;;
16667;SDS011;8447;52.630;4.734;2022-08-21T00:35:30;2.57;;;1.20;;
16667;SDS011;8447;52.630;4.734;2022-08-21T00:37:57;7.83;;;2.00;;
16667;SDS011;8447;52.630;4.734;2022-08-21T00:40:25;7.83;;;1.80;;
16667;SDS011;8447;52.630;4.734;2022-08-21T00:42:52;3.70;;;1.30;;
16667;SDS011;8447;52.630;4.734;2022-08-21T00:45:20;2.83;;;1.10;;
16667;SDS011;8447;52.630;4.734;2022-08-21T00:47:46;5.33;;;1.40;;
16667;SDS011;8447;52.630;4.734;2022-08-21T00:50:13;4.93;;;1.40;;
16667;SDS011;8447;52.630;4.734;2022-08-21T00:52:39;4.60;;;1.50;;
16667;SDS011;8447;52.630;4.734;2022-08-21T00:55:07;4.97;;;1.33;;
16667;SDS011;8447;52.630;4.734;2022-08-21T00:57:36;3.13;;;1.80;;
16667;SDS011;8447;52.630;4.734;2022-08-21T01:00:06;6.67;;;2.23;;
16667;SDS011;8447;52.630;4.734;2022-08-21T01:02:35;8.20;;;2.00;;
16667;SDS011;8447;52.630;4.734;2022-08-21T01:05:02;6.27;;;1.60;;
16667;SDS011;8447;52.630;4.734;2022-08-21T01:07:28;6.10;;;2.00;;
16667;SDS011;8447;52.630;4.734;2022-08-21T01:09:55;4.13;;;1.50;;
16667;SDS011;8447;52.630;4.734;2022-08-21T01:12:21;6.63;;;1.77;;
16667;SDS011;8447;52.630;4.734;2022-08-21T01:14:48;2.53;;;1.37;;
16667;SDS011;8447;52.630;4.734;2022-08-21T01:17:14;4.07;;;1.70;;
16667;SDS011;8447;52.630;4.734;2022-08-21T01:19:42;6.27;;;1.97;;
16667;SDS011;8447;52.630;4.734;2022-08-21T01:22:10;4.07;;;1.50;;
16667;SDS011;8447;52.630;4.734;2022-08-21T01:24:36;5.20;;;1.93;;
16667;SDS011;8447;52.630;4.734;2022-08-21T01:27:03;6.83;;;1.93;;
16667;SDS011;8447;52.630;4.734;2022-08-21T01:29:30;6.33;;;1.70;;
16667;SDS011;8447;52.630;4.734;2022-08-21T01:31:58;3.33;;;1.50;;
16667;SDS011;8447;52.630;4.734;2022-08-21T01:34:24;4.07;;;1.67;;
16667;SDS011;8447;52.630;4.734;2022-08-21T01:36:51;3.43;;;1.40;;
16667;SDS011;8447;52.630;4.734;2022-08-21T01:39:18;6.30;;;1.90;;
16667;SDS011;8447;52.630;4.734;2022-08-21T01:41:45;5.33;;;1.60;;
16667;SDS011;8447;52.630;4.734;2022-08-21T01:44:11;6.50;;;1.60;;
16667;SDS011;8447;52.630;4.734;2022-08-21T01:46:38;5.23;;;1.73;;
16667;SDS011;8447;52.630;4.734;2022-08-21T01:49:04;4.23;;;1.60;;
16667;SDS011;8447;52.630;4.734;2022-08-21T01:51:31;3.60;;;1.33;;
16667;SDS011;8447;52.630;4.734;2022-08-21T01:53:58;6.10;;;1.40;;
16667;SDS011;8447;52.630;4.734;2022-08-21T01:56:25;3.30;;;1.23;;
16667;SDS011;8447;52.630;4.734;2022-08-21T01:58:52;4.03;;;1.70;;
16667;SDS011;8447;52.630;4.734;2022-08-21T02:01:19;5.60;;;1.97;;
16667;SDS011;8447;52.630;4.734;2022-08-21T02:03:45;5.23;;;1.60;;
16667;SDS011;8447;52.630;4.734;2022-08-21T02:06:12;3.90;;;1.70;;
16667;SDS011;8447;52.630;4.734;2022-08-21T02:08:39;4.20;;;1.90;;
16667;SDS011;8447;52.630;4.734;2022-08-21T02:11:06;6.30;;;2.10;;
16667;SDS011;8447;52.630;4.734;2022-08-21T02:13:34;4.53;;;1.77;;
16667;SDS011;8447;52.630;4.734;2022-08-21T02:16:00;5.20;;;1.87;;
16667;SDS011;8447;52.630;4.734;2022-08-21T02:18:26;6.60;;;2.17;;
16667;SDS011;8447;52.630;4.734;2022-08-21T02:20:53;4.97;;;2.17;;
16667;SDS011;8447;52.630;4.734;2022-08-21T02:23:19;5.20;;;1.90;;
16667;SDS011;8447;52.630;4.734;2022-08-21T02:25:46;8.47;;;2.00;;
16667;SDS011;8447;52.630;4.734;2022-08-21T02:28:13;8.73;;;1.83;;
16667;SDS011;8447;52.630;4.734;2022-08-21T02:30:42;3.60;;;1.90;;
16667;SDS011;8447;52.630;4.734;2022-08-21T02:33:09;4.17;;;2.00;;
16667;SDS011;8447;52.630;4.734;2022-08-21T02:35:36;6.77;;;1.70;;
16667;SDS011;8447;52.630;4.734;2022-08-21T02:38:04;4.27;;;2.10;;
16667;SDS011;8447;52.630;4.734;2022-08-21T02:40:31;5.43;;;2.00;;
16667;SDS011;8447;52.630;4.734;2022-08-21T02:42:58;5.33;;;1.93;;
16667;SDS011;8447;52.630;4.734;2022-08-21T02:45:25;5.83;;;1.77;;
16667;SDS011;8447;52.630;4.734;2022-08-21T02:47:55;4.90;;;1.83;;
16667;SDS011;8447;52.630;4.734;2022-08-21T02:50:23;8.80;;;2.43;;
16667;SDS011;8447;52.630;4.734;2022-08-21T02:52:50;5.37;;;2.80;;
16667;SDS011;8447;52.630;4.734;2022-08-21T02:55:17;6.87;;;2.37;;
16667;SDS011;8447;52.630;4.734;2022-08-21T02:57:43;5.17;;;1.80;;
16667;SDS011;8447;52.630;4.734;2022-08-21T03:00:10;6.90;;;2.13;;
16667;SDS011;8447;52.630;4.734;2022-08-21T03:02:37;4.17;;;1.80;;
16667;SDS011;8447;52.630;4.734;2022-08-21T03:05:06;9.40;;;2.17;;
16667;SDS011;8447;52.630;4.734;2022-08-21T03:07:33;5.13;;;2.10;;
16667;SDS011;8447;52.630;4.734;2022-08-21T03:09:59;8.47;;;2.20;;
16667;SDS011;8447;52.630;4.734;2022-08-21T03:12:26;8.80;;;2.63;;
16667;SDS011;8447;52.630;4.734;2022-08-21T03:14:52;8.57;;;2.40;;
16667;SDS011;8447;52.630;4.734;2022-08-21T03:17:18;6.70;;;2.03;;
16667;SDS011;8447;52.630;4.734;2022-08-21T03:19:45;6.70;;;2.20;;
16667;SDS011;8447;52.630;4.734;2022-08-21T03:22:12;6.13;;;1.93;;
16667;SDS011;8447;52.630;4.734;2022-08-21T03:24:39;5.13;;;1.87;;
16667;SDS011;8447;52.630;4.734;2022-08-21T03:27:06;4.87;;;2.00;;
16667;SDS011;8447;52.630;4.734;2022-08-21T03:29:32;4.30;;;1.70;;
16667;SDS011;8447;52.630;4.734;2022-08-21T03:31:58;5.73;;;2.13;;
16667;SDS011;8447;52.630;4.734;2022-08-21T03:34:25;7.07;;;2.17;;
16667;SDS011;8447;52.630;4.734;2022-08-21T03:36:51;7.97;;;2.20;;
16667;SDS011;8447;52.630;4.734;2022-08-21T03:39:19;4.90;;;1.97;;
16667;SDS011;8447;52.630;4.734;2022-08-21T03:41:45;2.60;;;1.97;;
16667;SDS011;8447;52.630;4.734;2022-08-21T03:44:12;4.63;;;1.67;;
16667;SDS011;8447;52.630;4.734;2022-08-21T03:46:38;5.93;;;2.40;;
16667;SDS011;8447;52.630;4.734;2022-08-21T03:49:05;5.07;;;1.93;;
16667;SDS011;8447;52.630;4.734;2022-08-21T03:51:32;3.63;;;1.90;;
16667;SDS011;8447;52.630;4.734;2022-08-21T03:54:00;5.37;;;2.20;;
16667;SDS011;8447;52.630;4.734;2022-08-21T03:56:28;4.40;;;1.90;;
16667;SDS011;8447;52.630;4.734;2022-08-21T03:58:54;4.30;;;2.00;;
16667;SDS011;8447;52.630;4.734;2022-08-21T04:01:20;4.53;;;1.67;;
16667;SDS011;8447;52.630;4.734;2022-08-21T04:03:47;6.93;;;2.73;;
16667;SDS011;8447;52.630;4.734;2022-08-21T04:06:13;6.10;;;1.90;;
16667;SDS011;8447;52.630;4.734;2022-08-21T04:08:39;4.90;;;1.57;;
16667;SDS011;8447;52.630;4.734;2022-08-21T04:11:08;6.33;;;1.93;;
16667;SDS011;8447;52.630;4.734;2022-08-21T04:13:36;5.23;;;1.87;;
16667;SDS011;8447;52.630;4.734;2022-08-21T04:16:03;7.00;;;1.70;;
16667;SDS011;8447;52.630;4.734;2022-08-21T04:18:30;4.30;;;1.73;;
16667;SDS011;8447;52.630;4.734;2022-08-21T04:20:56;6.87;;;1.70;;
16667;SDS011;8447;52.630;4.734;2022-08-21T04:23:23;5.33;;;2.30;;
16667;SDS011;8447;52.630;4.734;2022-08-21T04:25:51;4.33;;;1.90;;
16667;SDS011;8447;52.630;4.734;2022-08-21T04:28:17;7.07;;;1.83;;
16667;SDS011;8447;52.630;4.734;2022-08-21T04:30:45;4.40;;;1.50;;
16667;SDS011;8447;52.630;4.734;2022-08-21T04:33:11;4.70;;;1.70;;
16667;SDS011;8447;52.630;4.734;2022-08-21T04:35:38;6.40;;;1.90;;
16667;SDS011;8447;52.630;4.734;2022-08-21T04:38:05;2.83;;;1.50;;
16667;SDS011;8447;52.630;4.734;2022-08-21T04:40:31;6.73;;;1.70;;
16667;SDS011;8447;52.630;4.734;2022-08-21T04:43:00;4.43;;;1.50;;
16667;SDS011;8447;52.630;4.734;2022-08-21T04:45:27;5.07;;;1.50;;
16667;SDS011;8447;52.630;4.734;2022-08-21T04:47:57;6.27;;;1.70;;
16667;SDS011;8447;52.630;4.734;2022-08-21T04:50:24;4.37;;;1.73;;
16667;SDS011;8447;52.630;4.734;2022-08-21T04:52:52;6.27;;;1.63;;
16667;SDS011;8447;52.630;4.734;2022-08-21T04:55:19;5.30;;;1.90;;
16667;SDS011;8447;52.630;4.734;2022-08-21T04:57:45;5.43;;;1.53;;
16667;SDS011;8447;52.630;4.734;2022-08-21T05:00:12;6.10;;;1.53;;
16667;SDS011;8447;52.630;4.734;2022-08-21T05:02:39;4.27;;;1.70;;
16667;SDS011;8447;52.630;4.734;2022-08-21T05:05:07;6.77;;;1.90;;
16667;SDS011;8447;52.630;4.734;2022-08-21T05:07:34;6.10;;;1.87;;
16667;SDS011;8447;52.630;4.734;2022-08-21T05:10:00;6.57;;;1.47;;
16667;SDS011;8447;52.630;4.734;2022-08-21T05:12:27;5.77;;;1.73;;
16667;SDS011;8447;52.630;4.734;2022-08-21T05:14:53;5.13;;;1.60;;
16667;SDS011;8447;52.630;4.734;2022-08-21T05:17:20;5.13;;;1.77;;
16667;SDS011;8447;52.630;4.734;2022-08-21T05:19:46;4.57;;;1.70;;
16667;SDS011;8447;52.630;4.734;2022-08-21T05:22:19;5.90;;;2.93;;
16667;SDS011;8447;52.630;4.734;2022-08-21T05:24:46;3.87;;;2.00;;
16667;SDS011;8447;52.630;4.734;2022-08-21T05:27:12;6.37;;;1.60;;
16667;SDS011;8447;52.630;4.734;2022-08-21T05:29:38;5.93;;;1.37;;
16667;SDS011;8447;52.630;4.734;2022-08-21T05:32:07;7.10;;;1.50;;
16667;SDS011;8447;52.630;4.734;2022-08-21T05:34:34;5.23;;;1.10;;
16667;SDS011;8447;52.630;4.734;2022-08-21T05:37:00;6.93;;;1.97;;
16667;SDS011;8447;52.630;4.734;2022-08-21T05:39:28;11.80;;;1.57;;
16667;SDS011;8447;52.630;4.734;2022-08-21T05:41:54;4.47;;;1.33;;
16667;SDS011;8447;52.630;4.734;2022-08-21T05:44:20;7.07;;;1.87;;
16667;SDS011;8447;52.630;4.734;2022-08-21T05:46:47;4.50;;;1.57;;
16667;SDS011;8447;52.630;4.734;2022-08-21T05:49:13;5.80;;;1.30;;
16667;SDS011;8447;52.630;4.734;2022-08-21T05:51:39;6.70;;;1.70;;
16667;SDS011;8447;52.630;4.734;2022-08-21T05:54:06;2.07;;;1.43;;
16667;SDS011;8447;52.630;4.734;2022-08-21T05:56:33;4.33;;;1.80;;
16667;SDS011;8447;52.630;4.734;2022-08-21T05:59:00;5.97;;;1.70;;
16667;SDS011;8447;52.630;4.734;2022-08-21T06:01:26;7.90;;;3.00;;
16667;SDS011;8447;52.630;4.734;2022-08-21T06:03:53;5.47;;;1.43;;
16667;SDS011;8447;52.630;4.734;2022-08-21T06:06:19;8.67;;;2.00;;
16667;SDS011;8447;52.630;4.734;2022-08-21T06:08:46;9.17;;;2.13;;
16667;SDS011;8447;52.630;4.734;2022-08-21T06:11:12;5.90;;;1.97;;
16667;SDS011;8447;52.630;4.734;2022-08-21T06:13:40;4.83;;;1.50;;
16667;SDS011;8447;52.630;4.734;2022-08-21T06:16:07;4.60;;;1.50;;
16667;SDS011;8447;52.630;4.734;2022-08-21T06:18:34;7.70;;;1.80;;
16667;SDS011;8447;52.630;4.734;2022-08-21T06:21:01;6.83;;;1.57;;
16667;SDS011;8447;52.630;4.734;2022-08-21T06:23:27;5.47;;;2.00;;
16667;SDS011;8447;52.630;4.734;2022-08-21T06:25:54;9.93;;;1.80;;
16667;SDS011;8447;52.630;4.734;2022-08-21T06:28:20;6.90;;;2.10;;
16667;SDS011;8447;52.630;4.734;2022-08-21T06:30:48;6.40;;;2.43;;
16667;SDS011;8447;52.630;4.734;2022-08-21T06:33:14;9.60;;;2.73;;
16667;SDS011;8447;52.630;4.734;2022-08-21T06:35:41;4.87;;;2.10;;
16667;SDS011;8447;52.630;4.734;2022-08-21T06:38:07;8.53;;;2.03;;
16667;SDS011;8447;52.630;4.734;2022-08-21T06:40:34;3.93;;;1.77;;
16667;SDS011;8447;52.630;4.734;2022-08-21T06:43:05;5.93;;;1.93;;
16667;SDS011;8447;52.630;4.734;2022-08-21T06:45:31;7.00;;;2.10;;
16667;SDS011;8447;52.630;4.734;2022-08-21T06:47:59;5.77;;;2.00;;
16667;SDS011;8447;52.630;4.734;2022-08-21T06:50:25;9.40;;;1.80;;
16667;SDS011;8447;52.630;4.734;2022-08-21T06:52:57;9.17;;;1.90;;
16667;SDS011;8447;52.630;4.734;2022-08-21T06:55:24;8.23;;;2.13;;
16667;SDS011;8447;52.630;4.734;2022-08-21T06:57:50;9.57;;;2.50;;
16667;SDS011;8447;52.630;4.734;2022-08-21T07:00:17;8.67;;;2.37;;
16667;SDS011;8447;52.630;4.734;2022-08-21T07:02:43;9.33;;;2.03;;
16667;SDS011;8447;52.630;4.734;2022-08-21T07:05:11;7.33;;;2.03;;
16667;SDS011;8447;52.630;4.734;2022-08-21T07:07:37;9.90;;;1.70;;
16667;SDS011;8447;52.630;4.734;2022-08-21T07:10:04;8.37;;;2.63;;
16667;SDS011;8447;52.630;4.734;2022-08-21T07:12:30;8.60;;;2.30;;
16667;SDS011;8447;52.630;4.734;2022-08-21T07:14:57;7.10;;;2.00;;
16667;SDS011;8447;52.630;4.734;2022-08-21T07:17:23;10.20;;;2.67;;
16667;SDS011;8447;52.630;4.734;2022-08-21T07:19:49;9.17;;;1.70;;
16667;SDS011;8447;52.630;4.734;2022-08-21T07:22:17;8.53;;;2.07;;
16667;SDS011;8447;52.630;4.734;2022-08-21T07:24:44;8.10;;;2.40;;
16667;SDS011;8447;52.630;4.734;2022-08-21T07:27:11;5.40;;;2.13;;
16667;SDS011;8447;52.630;4.734;2022-08-21T07:29:37;8.23;;;1.90;;
16667;SDS011;8447;52.630;4.734;2022-08-21T07:32:04;4.20;;;1.50;;
16667;SDS011;8447;52.630;4.734;2022-08-21T07:34:30;9.53;;;1.80;;
16667;SDS011;8447;52.630;4.734;2022-08-21T07:36:56;8.80;;;2.17;;
16667;SDS011;8447;52.630;4.734;2022-08-21T07:39:24;13.20;;;2.70;;
16667;SDS011;8447;52.630;4.734;2022-08-21T07:41:51;5.90;;;1.87;;
16667;SDS011;8447;52.630;4.734;2022-08-21T07:44:17;10.00;;;2.30;;
16667;SDS011;8447;52.630;4.734;2022-08-21T07:46:44;9.30;;;1.90;;
16667;SDS011;8447;52.630;4.734;2022-08-21T07:49:10;5.83;;;1.70;;
16667;SDS011;8447;52.630;4.734;2022-08-21T07:51:36;9.67;;;2.07;;
16667;SDS011;8447;52.630;4.734;2022-08-21T07:54:03;7.03;;;2.10;;
16667;SDS011;8447;52.630;4.734;2022-08-21T07:56:31;9.30;;;1.53;;
16667;SDS011;8447;52.630;4.734;2022-08-21T07:58:57;5.97;;;1.63;;
16667;SDS011;8447;52.630;4.734;2022-08-21T08:01:24;7.63;;;1.67;;
16667;SDS011;8447;52.630;4.734;2022-08-21T08:03:50;9.20;;;1.70;;
16667;SDS011;8447;52.630;4.734;2022-08-21T08:06:17;6.53;;;1.37;;
16667;SDS011;8447;52.630;4.734;2022-08-21T08:08:44;7.70;;;1.70;;
16667;SDS011;8447;52.630;4.734;2022-08-21T08:11:11;6.00;;;2.10;;
16667;SDS011;8447;52.630;4.734;2022-08-21T08:13:42;7.60;;;1.53;;
16667;SDS011;8447;52.630;4.734;2022-08-21T08:16:08;3.83;;;1.30;;
16667;SDS011;8447;52.630;4.734;2022-08-21T08:18:34;6.80;;;1.70;;
16667;SDS011;8447;52.630;4.734;2022-08-21T08:21:01;4.07;;;1.10;;
16667;SDS011;8447;52.630;4.734;2022-08-21T08:23:27;6.27;;;1.37;;
16667;SDS011;8447;52.630;4.734;2022-08-21T08:25:55;4.60;;;1.40;;
16667;SDS011;8447;52.630;4.734;2022-08-21T08:28:21;4.35;;;1.20;;
16667;SDS011;8447;52.630;4.734;2022-08-21T08:30:49;6.00;;;1.77;;
16667;SDS011;8447;52.630;4.734;2022-08-21T08:33:16;4.18;;;1.30;;
16667;SDS011;8447;52.630;4.734;2022-08-21T08:35:42;6.93;;;1.70;;
16667;SDS011;8447;52.630;4.734;2022-08-21T08:38:10;5.00;;;1.10;;
16667;SDS011;8447;52.630;4.734;2022-08-21T08:40:37;4.90;;;1.38;;
16667;SDS011;8447;52.630;4.734;2022-08-21T08:43:06;4.78;;;1.42;;
16667;SDS011;8447;52.630;4.734;2022-08-21T08:45:33;4.10;;;1.20;;
16667;SDS011;8447;52.630;4.734;2022-08-21T08:48:02;5.53;;;1.38;;
16667;SDS011;8447;52.630;4.734;2022-08-21T08:50:33;5.10;;;1.40;;
16667;SDS011;8447;52.630;4.734;2022-08-21T08:53:05;5.20;;;1.20;;
16667;SDS011;8447;52.630;4.734;2022-08-21T08:55:33;3.58;;;1.48;;
16667;SDS011;8447;52.630;4.734;2022-08-21T08:58:00;4.47;;;1.48;;
16667;SDS011;8447;52.630;4.734;2022-08-21T09:00:27;4.72;;;1.48;;
16667;SDS011;8447;52.630;4.734;2022-08-21T09:02:55;5.03;;;1.35;;
16667;SDS011;8447;52.630;4.734;2022-08-21T09:05:26;4.68;;;1.40;;
16667;SDS011;8447;52.630;4.734;2022-08-21T09:08:00;5.57;;;1.58;;
16667;SDS011;8447;52.630;4.734;2022-08-21T09:10:36;3.33;;;1.02;;
16667;SDS011;8447;52.630;4.734;2022-08-21T09:13:07;2.60;;;1.23;;
16667;SDS011;8447;52.630;4.734;2022-08-21T09:15:40;5.22;;;1.75;;
16667;SDS011;8447;52.630;4.734;2022-08-21T09:18:14;3.60;;;1.20;;
16667;SDS011;8447;52.630;4.734;2022-08-21T09:20:48;3.90;;;1.50;;
16667;SDS011;8447;52.630;4.734;2022-08-21T09:23:25;6.25;;;1.27;;
16667;SDS011;8447;52.630;4.734;2022-08-21T09:25:55;6.22;;;1.48;;
16667;SDS011;8447;52.630;4.734;2022-08-21T09:28:24;5.57;;;1.40;;
16667;SDS011;8447;52.630;4.734;2022-08-21T09:30:51;2.55;;;1.00;;
16667;SDS011;8447;52.630;4.734;2022-08-21T09:33:20;4.85;;;1.50;;
16667;SDS011;8447;52.630;4.734;2022-08-21T09:35:50;5.00;;;1.42;;
16667;SDS011;8447;52.630;4.734;2022-08-21T09:38:25;4.82;;;1.63;;
16667;SDS011;8447;52.630;4.734;2022-08-21T09:40:55;4.85;;;1.23;;
16667;SDS011;8447;52.630;4.734;2022-08-21T09:43:23;3.53;;;1.00;;
16667;SDS011;8447;52.630;4.734;2022-08-21T09:46:01;5.55;;;1.38;;
16667;SDS011;8447;52.630;4.734;2022-08-21T09:48:27;5.32;;;1.02;;
16667;SDS011;8447;52.630;4.734;2022-08-21T09:51:04;4.35;;;1.00;;
16667;SDS011;8447;52.630;4.734;2022-08-21T09:53:32;3.42;;;1.33;;
16667;SDS011;8447;52.630;4.734;2022-08-21T09:56:00;3.33;;;1.00;;
16667;SDS011;8447;52.630;4.734;2022-08-21T09:58:46;4.57;;;1.33;;
16667;SDS011;8447;52.630;4.734;2022-08-21T10:01:13;5.65;;;1.70;;
16667;SDS011;8447;52.630;4.734;2022-08-21T10:03:40;4.28;;;1.02;;
16667;SDS011;8447;52.630;4.734;2022-08-21T10:06:07;5.50;;;1.63;;
16667;SDS011;8447;52.630;4.734;2022-08-21T10:08:37;3.17;;;1.10;;
16667;SDS011;8447;52.630;4.734;2022-08-21T10:11:04;3.88;;;1.00;;
16667;SDS011;8447;52.630;4.734;2022-08-21T10:13:39;2.67;;;1.00;;
16667;SDS011;8447;52.630;4.734;2022-08-21T10:16:13;3.58;;;1.05;;
16667;SDS011;8447;52.630;4.734;2022-08-21T10:18:42;6.45;;;1.27;;
16667;SDS011;8447;52.630;4.734;2022-08-21T10:21:14;3.97;;;1.10;;
16667;SDS011;8447;52.630;4.734;2022-08-21T10:23:52;4.15;;;1.20;;
16667;SDS011;8447;52.630;4.734;2022-08-21T10:26:26;5.25;;;1.17;;
16667;SDS011;8447;52.630;4.734;2022-08-21T10:28:55;4.72;;;1.13;;
16667;SDS011;8447;52.630;4.734;2022-08-21T10:31:28;4.88;;;1.25;;
16667;SDS011;8447;52.630;4.734;2022-08-21T10:34:03;4.43;;;1.20;;
16667;SDS011;8447;52.630;4.734;2022-08-21T10:36:33;7.45;;;1.38;;
16667;SDS011;8447;52.630;4.734;2022-08-21T10:39:04;6.25;;;1.23;;
16667;SDS011;8447;52.630;4.734;2022-08-21T10:41:41;6.40;;;1.05;;
16667;SDS011;8447;52.630;4.734;2022-08-21T10:44:13;4.78;;;1.23;;
16667;SDS011;8447;52.630;4.734;2022-08-21T10:46:44;2.88;;;1.25;;
16667;SDS011;8447;52.630;4.734;2022-08-21T10:49:17;3.58;;;1.23;;
16667;SDS011;8447;52.630;4.734;2022-08-21T10:51:48;4.30;;;1.30;;
16667;SDS011;8447;52.630;4.734;2022-08-21T10:54:20;3.33;;;1.27;;
16667;SDS011;8447;52.630;4.734;2022-08-21T10:56:49;3.67;;;1.27;;
16667;SDS011;8447;52.630;4.734;2022-08-21T10:59:22;3.63;;;1.40;;
16667;SDS011;8447;52.630;4.734;2022-08-21T11:01:52;5.35;;;1.10;;
16667;SDS011;8447;52.630;4.734;2022-08-21T11:04:20;2.95;;;1.23;;
16667;SDS011;8447;52.630;4.734;2022-08-21T11:06:49;3.20;;;1.25;;
16667;SDS011;8447;52.630;4.734;2022-08-21T11:09:20;6.55;;;1.38;;
16667;SDS011;8447;52.630;4.734;2022-08-21T11:11:49;6.78;;;1.35;;
16667;SDS011;8447;52.630;4.734;2022-08-21T11:14:20;5.00;;;1.50;;
16667;SDS011;8447;52.630;4.734;2022-08-21T11:16:48;4.28;;;1.02;;
16667;SDS011;8447;52.630;4.734;2022-08-21T11:19:17;6.47;;;1.70;;
16667;SDS011;8447;52.630;4.734;2022-08-21T11:21:46;5.90;;;1.45;;
16667;SDS011;8447;52.630;4.734;2022-08-21T11:24:22;4.68;;;1.30;;
16667;SDS011;8447;52.630;4.734;2022-08-21T11:26:51;3.75;;;1.20;;
16667;SDS011;8447;52.630;4.734;2022-08-21T11:29:22;3.10;;;1.20;;
16667;SDS011;8447;52.630;4.734;2022-08-21T11:31:58;2.97;;;1.05;;
16667;SDS011;8447;52.630;4.734;2022-08-21T11:34:31;4.38;;;0.80;;
16667;SDS011;8447;52.630;4.734;2022-08-21T11:37:01;4.05;;;0.90;;
16667;SDS011;8447;52.630;4.734;2022-08-21T11:39:33;3.22;;;1.30;;
16667;SDS011;8447;52.630;4.734;2022-08-21T11:42:08;4.03;;;1.02;;
16667;SDS011;8447;52.630;4.734;2022-08-21T11:44:40;1.48;;;0.90;;
16667;SDS011;8447;52.630;4.734;2022-08-21T11:47:11;1.75;;;0.75;;
16667;SDS011;8447;52.630;4.734;2022-08-21T11:49:43;4.63;;;1.33;;
16667;SDS011;8447;52.630;4.734;2022-08-21T11:52:14;3.95;;;1.20;;
16667;SDS011;8447;52.630;4.734;2022-08-21T11:54:44;4.30;;;1.17;;
16667;SDS011;8447;52.630;4.734;2022-08-21T11:57:14;4.20;;;1.30;;
16667;SDS011;8447;52.630;4.734;2022-08-21T11:59:42;4.38;;;1.20;;
16667;SDS011;8447;52.630;4.734;2022-08-21T12:02:12;3.40;;;1.27;;
16667;SDS011;8447;52.630;4.734;2022-08-21T12:04:42;4.60;;;1.02;;
16667;SDS011;8447;52.630;4.734;2022-08-21T12:07:10;2.78;;;0.90;;
16667;SDS011;8447;52.630;4.734;2022-08-21T12:09:36;2.80;;;0.95;;
16667;SDS011;8447;52.630;4.734;2022-08-21T12:12:05;4.32;;;1.02;;
16667;SDS011;8447;52.630;4.734;2022-08-21T12:14:36;3.15;;;0.90;;
16667;SDS011;8447;52.630;4.734;2022-08-21T12:17:04;2.85;;;0.90;;
16667;SDS011;8447;52.630;4.734;2022-08-21T12:19:31;3.47;;;0.95;;
16667;SDS011;8447;52.630;4.734;2022-08-21T12:21:59;5.10;;;1.00;;
16667;SDS011;8447;52.630;4.734;2022-08-21T12:24:32;3.95;;;0.90;;
16667;SDS011;8447;52.630;4.734;2022-08-21T12:26:59;3.17;;;1.05;;
16667;SDS011;8447;52.630;4.734;2022-08-21T12:29:28;2.78;;;0.80;;
16667;SDS011;8447;52.630;4.734;2022-08-21T12:31:57;3.30;;;1.10;;
16667;SDS011;8447;52.630;4.734;2022-08-21T12:34:25;2.55;;;1.02;;
16667;SDS011;8447;52.630;4.734;2022-08-21T12:36:54;2.28;;;0.82;;
16667;SDS011;8447;52.630;4.734;2022-08-21T12:39:24;4.75;;;1.17;;
16667;SDS011;8447;52.630;4.734;2022-08-21T12:41:53;2.83;;;0.95;;
16667;SDS011;8447;52.630;4.734;2022-08-21T12:44:22;3.35;;;1.10;;
16667;SDS011;8447;52.630;4.734;2022-08-21T12:46:53;2.40;;;0.82;;
16667;SDS011;8447;52.630;4.734;2022-08-21T12:49:24;3.28;;;0.65;;
16667;SDS011;8447;52.630;4.734;2022-08-21T12:51:54;5.65;;;1.00;;
16667;SDS011;8447;52.630;4.734;2022-08-21T12:54:25;4.72;;;1.15;;
16667;SDS011;8447;52.630;4.734;2022-08-21T12:56:55;3.17;;;0.75;;
16667;SDS011;8447;52.630;4.734;2022-08-21T12:59:22;2.25;;;0.73;;
16667;SDS011;8447;52.630;4.734;2022-08-21T13:01:49;2.90;;;0.80;;
16667;SDS011;8447;52.630;4.734;2022-08-21T13:04:19;1.80;;;0.70;;
16667;SDS011;8447;52.630;4.734;2022-08-21T13:06:47;5.65;;;1.45;;
16667;SDS011;8447;52.630;4.734;2022-08-21T13:09:16;4.05;;;1.05;;
16667;SDS011;8447;52.630;4.734;2022-08-21T13:11:45;3.80;;;0.90;;
16667;SDS011;8447;52.630;4.734;2022-08-21T13:14:14;6.05;;;1.10;;
16667;SDS011;8447;52.630;4.734;2022-08-21T13:16:40;1.70;;;0.80;;
16667;SDS011;8447;52.630;4.734;2022-08-21T13:19:07;7.88;;;1.20;;
16667;SDS011;8447;52.630;4.734;2022-08-21T13:21:38;3.72;;;1.00;;
16667;SDS011;8447;52.630;4.734;2022-08-21T13:24:15;1.83;;;1.17;;
16667;SDS011;8447;52.630;4.734;2022-08-21T13:26:41;4.90;;;0.98;;
16667;SDS011;8447;52.630;4.734;2022-08-21T13:29:08;5.78;;;0.90;;
16667;SDS011;8447;52.630;4.734;2022-08-21T13:31:36;3.38;;;0.82;;
16667;SDS011;8447;52.630;4.734;2022-08-21T13:34:03;2.40;;;0.80;;
16667;SDS011;8447;52.630;4.734;2022-08-21T13:36:31;3.63;;;1.00;;
16667;SDS011;8447;52.630;4.734;2022-08-21T13:38:59;2.88;;;0.63;;
16667;SDS011;8447;52.630;4.734;2022-08-21T13:41:26;2.67;;;0.97;;
16667;SDS011;8447;52.630;4.734;2022-08-21T13:43:57;5.20;;;0.70;;
16667;SDS011;8447;52.630;4.734;2022-08-21T13:46:24;4.40;;;1.07;;
16667;SDS011;8447;52.630;4.734;2022-08-21T13:48:52;3.67;;;1.00;;
16667;SDS011;8447;52.630;4.734;2022-08-21T13:51:19;2.97;;;0.90;;
16667;SDS011;8447;52.630;4.734;2022-08-21T13:53:47;5.60;;;1.57;;
16667;SDS011;8447;52.630;4.734;2022-08-21T13:56:24;5.27;;;1.20;;
16667;SDS011;8447;52.630;4.734;2022-08-21T13:58:51;1.83;;;0.80;;
16667;SDS011;8447;52.630;4.734;2022-08-21T14:01:18;3.63;;;1.07;;
16667;SDS011;8447;52.630;4.734;2022-08-21T14:03:45;5.10;;;1.17;;
16667;SDS011;8447;52.630;4.734;2022-08-21T14:06:14;3.60;;;0.90;;
16667;SDS011;8447;52.630;4.734;2022-08-21T14:08:41;3.30;;;0.83;;
16667;SDS011;8447;52.630;4.734;2022-08-21T14:11:09;4.27;;;1.10;;
16667;SDS011;8447;52.630;4.734;2022-08-21T14:13:39;4.23;;;1.20;;
16667;SDS011;8447;52.630;4.734;2022-08-21T14:16:11;5.50;;;1.40;;
16667;SDS011;8447;52.630;4.734;2022-08-21T14:18:43;3.00;;;1.13;;
16667;SDS011;8447;52.630;4.734;2022-08-21T14:21:09;5.10;;;0.97;;
16667;SDS011;8447;52.630;4.734;2022-08-21T14:23:36;5.50;;;1.20;;
16667;SDS011;8447;52.630;4.734;2022-08-21T14:26:04;5.23;;;0.90;;
16667;SDS011;8447;52.630;4.734;2022-08-21T14:28:32;3.30;;;0.73;;
16667;SDS011;8447;52.630;4.734;2022-08-21T14:31:10;3.27;;;0.90;;
16667;SDS011;8447;52.630;4.734;2022-08-21T14:33:37;2.80;;;0.97;;
16667;SDS011;8447;52.630;4.734;2022-08-21T14:36:04;2.30;;;0.87;;
16667;SDS011;8447;52.630;4.734;2022-08-21T14:38:30;3.67;;;1.10;;
16667;SDS011;8447;52.630;4.734;2022-08-21T14:40:57;1.90;;;0.87;;
16667;SDS011;8447;52.630;4.734;2022-08-21T14:43:25;2.53;;;1.10;;
16667;SDS011;8447;52.630;4.734;2022-08-21T14:45:52;4.83;;;1.50;;
16667;SDS011;8447;52.630;4.734;2022-08-21T14:48:20;2.73;;;0.90;;
16667;SDS011;8447;52.630;4.734;2022-08-21T14:50:46;3.70;;;1.10;;
16667;SDS011;8447;52.630;4.734;2022-08-21T14:53:13;2.67;;;1.10;;
16667;SDS011;8447;52.630;4.734;2022-08-21T14:55:39;3.53;;;1.20;;
16667;SDS011;8447;52.630;4.734;2022-08-21T14:58:23;4.00;;;1.07;;
16667;SDS011;8447;52.630;4.734;2022-08-21T15:00:50;3.03;;;1.00;;
16667;SDS011;8447;52.630;4.734;2022-08-21T15:03:17;7.17;;;0.90;;
16667;SDS011;8447;52.630;4.734;2022-08-21T15:05:45;5.33;;;1.27;;